Etusivu
METAR-TAF:

METAR-TAF

Lentoasemat :

South St. Paul Municipal Airport (Richard E. Fleming Field)

South St. Paul, Minnesota, Yhdysvallat

Leveyspiiri: 44-51-26N, Pituuspiiri: 093-01-58W, korkeus merenpinnasta: 250 m

Tämänhetkinen sää

Tämä raportti tehtiin 20 minuuttia sitten, kello 17.35 UTC
Tuuli 11 kn etelästä/kaakosta
Lämpötila 19°C
Kosteus 94%
Ilmanpaine 1019 hPa
Näkyvyys: 6.4 km
Hajonneita pilviä 2700 ft:n korkeudessa
Hajonneita pilviä 3100 ft:n korkeudessa
Hajonneita pilviä 4500 ft:n korkeudessa

METAR: KSGS 121735Z AUTO 15011KT 4SM BKN027 BKN031 BKN045 19/18 A3009 RMK AO2 LTG DSNT S AND SW P0011 T01880180 PWINO

Aika: 12:55 (17:55 UTC)


TAF: puuttuu

Säähavainnot ja -ennusteet yli 4000 lentoasemalta (METAR- ja TAF-raportit).

Käytössä olevat sääasemat on merkitty karttaan keltaisilla ja punaisilla pisteillä.

Aseta hiiri pisteen päälle nähdäksesi sääaseman nimen.

Klikkaa sitten nähdäksesi säähavainnot ja -ennusteet.

Kartan vaihtaminen: klikkaa mustalla rastilla varustettuja vihreitä pisteitä, niin voit zoomata sisään; viivalla varustettua vihreää pistettä, niin voit zoomata ulos tai vihreitä nuolia, niin pääset viereisille kartoille.


METAR-TAF: